createdAt,value
2023-04-27T00:01:42.351Z,96456.78
2023-04-27T00:04:09.534Z,96449.25
2023-04-27T00:06:36.684Z,96427.38
2023-04-27T00:09:04.774Z,96447.50
2023-04-27T00:11:31.982Z,96443.13
2023-04-27T00:13:58.980Z,96425.47
2023-04-27T00:16:26.424Z,96421.69
2023-04-27T00:18:53.390Z,96434.00
2023-04-27T00:21:20.423Z,96442.63
2023-04-27T00:23:47.359Z,96429.03
2023-04-27T00:26:14.281Z,96440.41
2023-04-27T00:28:44.183Z,96436.69
2023-04-27T06:39:37.356Z,96554.44
2023-04-27T06:42:04.701Z,96523.66
2023-04-27T06:44:32.390Z,96548.78
2023-04-27T06:46:59.215Z,96562.94
2023-04-27T06:49:26.206Z,96537.94
2023-04-27T06:51:53.078Z,96564.13
2023-04-27T06:54:19.981Z,96541.06
2023-04-27T06:56:47.161Z,96542.38
2023-04-27T06:59:14.194Z,96567.03
2023-04-27T07:01:41.301Z,96563.69
2023-04-27T07:04:08.593Z,96567.72
2023-04-27T07:06:35.453Z,96563.97
2023-04-27T07:09:04.512Z,96566.22
2023-04-27T07:11:33.041Z,96539.78
2023-04-27T07:13:59.904Z,96564.75
2023-04-27T07:16:27.041Z,96562.28
2023-04-27T07:18:53.880Z,96571.41
2023-04-27T07:21:20.905Z,96564.44
2023-04-27T07:23:47.812Z,96565.09
2023-04-27T07:26:14.648Z,96571.34
2023-04-27T07:28:41.718Z,96570.16
2023-04-27T07:31:08.633Z,96549.53
2023-04-27T07:33:35.564Z,96553.94
2023-04-27T07:36:02.977Z,96578.13
2023-04-27T07:38:31.430Z,96542.13
2023-04-27T07:41:02.102Z,96578.22
2023-04-27T07:43:29.197Z,96582.13
2023-04-27T07:45:58.649Z,96570.16
2023-04-27T07:48:25.762Z,96583.00
2023-04-27T07:50:52.872Z,96557.91
2023-04-27T07:53:19.827Z,96584.19
2023-04-27T07:55:46.729Z,96582.50
2023-04-27T07:58:13.634Z,96556.38
2023-04-27T08:00:40.459Z,96591.03
2023-04-27T08:03:08.299Z,96590.28
2023-04-27T08:05:36.059Z,96563.78
2023-04-27T08:08:03.094Z,96565.94
2023-04-27T08:10:29.978Z,96548.59
2023-04-27T08:12:56.871Z,96556.84
2023-04-27T08:15:23.801Z,96561.84
2023-04-27T08:17:50.847Z,96582.69
2023-04-27T08:20:17.778Z,96583.81
2023-04-27T08:22:44.622Z,96597.31
2023-04-27T08:25:11.487Z,96601.50
2023-04-27T08:27:39.350Z,96572.91
2023-04-27T08:30:07.052Z,96598.88
2023-04-27T08:32:34.047Z,96586.94
2023-04-27T08:35:01.245Z,96598.13
2023-04-27T08:37:30.997Z,96589.28
2023-04-27T08:39:57.972Z,96587.56
2023-04-27T08:42:25.084Z,96573.16
2023-04-27T08:44:52.031Z,96580.44
2023-04-27T08:47:23.503Z,96601.38
2023-04-27T08:49:58.221Z,96604.81
2023-04-27T08:52:25.155Z,96596.38
2023-04-27T08:54:52.092Z,96596.81
2023-04-27T08:57:19.031Z,96567.34
2023-04-27T08:59:57.537Z,96601.94
2023-04-27T09:02:25.104Z,96603.63
2023-04-27T09:04:52.190Z,96602.13
2023-04-27T09:07:19.259Z,96546.75
2023-04-27T09:09:46.363Z,96565.31
2023-04-27T09:12:22.467Z,96608.00
2023-04-27T09:15:06.744Z,96602.59
2023-04-27T09:17:34.086Z,96594.22
2023-04-27T09:20:13.632Z,96591.91
2023-04-27T09:22:48.183Z,96595.00
2023-04-27T09:25:33.763Z,96593.03
2023-04-27T09:28:01.854Z,96604.69
2023-04-27T09:30:29.676Z,96599.66
2023-04-27T09:33:02.894Z,96587.31
2023-04-27T09:35:32.967Z,96582.13
2023-04-27T09:38:00.905Z,96573.97
2023-04-27T09:40:31.009Z,96584.78
2023-04-27T09:43:04.115Z,96580.41
2023-04-27T09:45:33.591Z,96567.00
2023-04-27T09:48:02.065Z,96570.69
2023-04-27T09:50:29.108Z,96570.22
2023-04-27T09:52:56.543Z,96553.06
2023-04-27T09:55:29.872Z,96566.38
2023-04-27T09:58:27.799Z,96565.75
2023-04-27T10:01:05.087Z,96571.97
2023-04-27T10:03:57.174Z,96565.22
2023-04-27T10:06:53.714Z,96557.63
2023-04-27T10:09:23.847Z,96531.22
2023-04-27T10:11:52.605Z,96538.03
2023-04-27T10:14:21.922Z,96536.22
2023-04-27T10:16:57.342Z,96556.94
2023-04-27T10:19:25.640Z,96549.31
2023-04-27T10:21:53.799Z,96552.13
2023-04-27T10:24:32.237Z,96557.50
2023-04-27T10:27:05.944Z,96557.88
2023-04-27T10:29:42.189Z,96540.59
2023-04-27T10:32:21.650Z,96560.84
2023-04-27T10:34:49.441Z,96531.56
2023-04-27T10:37:16.936Z,96543.59
2023-04-27T10:39:49.110Z,96556.94
2023-04-27T10:42:28.821Z,96558.44
2023-04-27T10:44:59.478Z,96533.72
2023-04-27T10:47:41.289Z,96556.81
2023-04-27T10:50:13.856Z,96541.34
2023-04-27T10:52:44.493Z,96548.44
2023-04-27T10:55:19.263Z,96541.94
2023-04-27T10:57:51.968Z,96544.03
2023-04-27T11:00:42.424Z,96519.38
2023-04-27T11:03:19.894Z,96543.16
2023-04-27T11:05:49.312Z,96511.25
2023-04-27T11:08:18.336Z,96531.88
2023-04-27T11:10:47.246Z,96521.50
2023-04-27T11:13:16.760Z,96521.94
2023-04-27T11:15:58.236Z,96528.44
2023-04-27T11:18:28.009Z,96519.72
2023-04-27T11:21:07.802Z,96497.47
2023-04-27T11:23:38.830Z,96532.69
2023-04-27T11:26:21.713Z,96517.81
2023-04-27T11:29:09.533Z,96532.94
2023-04-27T11:31:49.480Z,96537.84
2023-04-27T11:34:22.852Z,96527.72
2023-04-27T11:37:17.347Z,96530.88
2023-04-27T11:39:46.160Z,96525.06
2023-04-27T11:42:19.932Z,96528.31
2023-04-27T11:45:01.414Z,96505.19
2023-04-27T11:47:30.073Z,96533.91
2023-04-27T11:49:58.453Z,96501.66
2023-04-27T11:52:36.950Z,96523.13
2023-04-27T11:55:05.083Z,96530.56
2023-04-27T11:57:34.232Z,96521.91
2023-04-27T12:00:03.533Z,96504.56
2023-04-27T12:02:41.007Z,96536.56
2023-04-27T12:05:10.065Z,96542.44
2023-04-27T12:07:37.121Z,96496.03
2023-04-27T12:10:04.804Z,96529.63
2023-04-27T12:12:31.778Z,96522.00
2023-04-27T12:14:59.093Z,96510.31
2023-04-27T12:17:26.171Z,96496.69
2023-04-27T12:19:53.050Z,96523.03
2023-04-27T12:22:20.427Z,96493.56
2023-04-27T12:24:47.300Z,96495.06
2023-04-27T12:27:14.160Z,96498.88
2023-04-27T12:29:41.108Z,96484.09
2023-04-27T12:32:08.056Z,96520.88
2023-04-27T12:34:35.364Z,96520.28
2023-04-27T12:37:02.352Z,96524.97
2023-04-27T12:39:29.497Z,96494.56
2023-04-27T12:41:56.572Z,96501.69
2023-04-27T12:44:23.435Z,96485.88
2023-04-27T12:46:50.946Z,96503.59
2023-04-27T12:49:18.295Z,96500.06
2023-04-27T12:51:47.301Z,96505.00
2023-04-27T12:54:14.457Z,96488.03
2023-04-27T12:56:42.159Z,96508.31
2023-04-27T12:59:09.318Z,96488.38
2023-04-27T13:01:36.908Z,96504.06
2023-04-27T13:04:06.219Z,96508.63
2023-04-27T13:06:33.333Z,96508.28
2023-04-27T13:09:00.312Z,96481.34
2023-04-27T13:11:27.560Z,96487.28
2023-04-27T13:13:55.358Z,96489.09
2023-04-27T13:16:25.747Z,96506.72
2023-04-27T13:18:53.882Z,96504.78
2023-04-27T13:21:21.018Z,96493.91
2023-04-27T13:23:48.526Z,96504.94
2023-04-27T13:26:16.641Z,96503.91
2023-04-27T13:28:43.683Z,96484.88
2023-04-27T13:31:11.174Z,96509.19
2023-04-27T13:33:43.037Z,96500.34
2023-04-27T13:36:11.644Z,96478.25
2023-04-27T13:38:38.609Z,96461.69
2023-04-27T13:41:06.567Z,96497.19
2023-04-27T13:43:33.480Z,96488.44
2023-04-27T13:46:01.804Z,96469.53
2023-04-27T13:48:29.449Z,96477.25
2023-04-27T13:50:56.632Z,96469.97
2023-04-27T13:53:27.097Z,96467.00
2023-04-27T13:55:55.074Z,96466.06
2023-04-27T13:58:23.805Z,96486.72
2023-04-27T14:00:53.152Z,96483.22
2023-04-27T14:03:20.517Z,96467.16
2023-04-27T14:05:49.154Z,96473.97
2023-04-27T14:08:16.193Z,96450.66
2023-04-27T14:10:44.686Z,96476.63
2023-04-27T14:13:12.385Z,96459.66
2023-04-27T14:15:39.377Z,96456.84
2023-04-27T14:18:07.997Z,96472.09
2023-04-27T14:20:36.440Z,96473.44
2023-04-27T14:23:05.378Z,96464.72
2023-04-27T14:25:35.310Z,96449.44
2023-04-27T14:28:04.781Z,96468.03
2023-04-27T14:30:32.926Z,96471.47
2023-04-27T14:32:59.987Z,96463.66
2023-04-27T14:35:27.904Z,96447.38
2023-04-27T14:37:57.088Z,96466.06
2023-04-27T14:40:24.238Z,96409.78
2023-04-27T14:42:51.261Z,96473.72
2023-04-27T14:45:19.111Z,96451.56
2023-04-27T14:47:46.153Z,96468.81
2023-04-27T14:50:13.284Z,96474.91
2023-04-27T14:52:40.274Z,96475.88
2023-04-27T14:55:07.823Z,96469.41
2023-04-27T14:57:35.892Z,96473.25
2023-04-27T15:00:06.902Z,96474.50
2023-04-27T15:02:34.437Z,96468.75
2023-04-27T15:05:02.718Z,96473.09
2023-04-27T15:07:29.656Z,96471.72
2023-04-27T15:09:56.578Z,96481.09
2023-04-27T15:12:23.793Z,96469.94
2023-04-27T15:14:52.773Z,96440.63
2023-04-27T15:17:19.943Z,96455.69
2023-04-27T15:19:47.030Z,96468.56
2023-04-27T15:22:16.646Z,96472.66
2023-04-27T15:24:43.583Z,96464.75
2023-04-27T15:27:10.660Z,96462.81
2023-04-27T15:29:37.590Z,96476.09
2023-04-27T15:32:04.755Z,96460.34
2023-04-27T15:34:32.106Z,96452.72
2023-04-27T15:36:58.994Z,96461.97
2023-04-27T15:39:27.477Z,96429.03
2023-04-27T15:41:54.417Z,96441.53
2023-04-27T15:44:21.334Z,96430.84
2023-04-27T15:46:48.317Z,96450.38
2023-04-27T15:49:15.507Z,96445.41
2023-04-27T15:51:42.748Z,96442.50
2023-04-27T15:54:09.694Z,96432.19
2023-04-27T15:56:36.718Z,96450.56
2023-04-27T15:59:07.108Z,96443.25
2023-04-27T16:01:34.132Z,96439.25
2023-04-27T16:04:01.345Z,96413.06
2023-04-27T16:06:33.379Z,96435.16
2023-04-27T16:09:01.420Z,96418.56
2023-04-27T16:11:28.309Z,96433.72
2023-04-27T16:13:55.261Z,96406.34
2023-04-27T16:16:22.238Z,96421.38
2023-04-27T16:18:49.580Z,96409.97
2023-04-27T16:21:16.937Z,96424.06
2023-04-27T16:23:43.846Z,96391.41
2023-04-27T16:26:11.374Z,96416.38
2023-04-27T16:28:38.480Z,96415.78
2023-04-27T16:31:05.799Z,96395.28
2023-04-27T16:33:32.725Z,96403.34
2023-04-27T16:35:59.619Z,96417.03
2023-04-27T16:38:26.961Z,96414.94
2023-04-27T16:40:56.227Z,96404.66
2023-04-27T16:43:23.245Z,96409.09
2023-04-27T16:45:50.180Z,96423.81
2023-04-27T16:48:17.766Z,96404.38
2023-04-27T16:50:44.747Z,96403.59
2023-04-27T16:53:15.255Z,96421.09
2023-04-27T16:55:42.131Z,96406.59
2023-04-27T16:58:09.058Z,96396.72
2023-04-27T17:00:36.431Z,96424.06
2023-04-27T17:03:03.696Z,96415.63
2023-04-27T17:05:30.905Z,96392.69
2023-04-27T17:07:57.775Z,96389.03
2023-04-27T17:10:24.784Z,96389.00
2023-04-27T17:12:51.768Z,96413.75
2023-04-27T17:15:18.747Z,96407.28
2023-04-27T17:17:45.829Z,96421.59
2023-04-27T17:20:13.526Z,96399.81
2023-04-27T17:22:40.632Z,96399.47
2023-04-27T17:25:08.802Z,96384.13
2023-04-27T17:27:35.683Z,96379.03
2023-04-27T17:30:02.642Z,96409.94
2023-04-27T17:32:29.537Z,96367.09
2023-04-27T17:34:57.755Z,96400.34
2023-04-27T17:37:24.772Z,96404.34
2023-04-27T17:39:53.169Z,96416.38
2023-04-27T17:42:20.137Z,96386.22
2023-04-27T17:44:47.020Z,96405.53
2023-04-27T17:47:14.214Z,96388.22
2023-04-27T17:49:41.265Z,96412.50
2023-04-27T17:52:08.175Z,96399.38
2023-04-27T17:54:35.030Z,96394.19
2023-04-27T17:57:02.239Z,96403.78
2023-04-27T17:59:29.171Z,96392.22
2023-04-27T18:01:56.249Z,96387.69
2023-04-27T18:04:23.334Z,96411.97
2023-04-27T18:06:50.286Z,96395.19
2023-04-27T18:09:17.645Z,96372.53
2023-04-27T18:11:44.632Z,96395.38
2023-04-27T18:14:11.678Z,96419.00
2023-04-27T18:16:38.688Z,96380.25
2023-04-27T18:19:05.653Z,96409.56
2023-04-27T18:21:32.911Z,96403.06
2023-04-27T18:23:59.776Z,96399.28
2023-04-27T18:26:26.647Z,96406.78
2023-04-27T18:28:53.891Z,96395.75
2023-04-27T18:31:20.955Z,96382.72
2023-04-27T18:33:48.024Z,96391.97
2023-04-27T18:36:14.911Z,96394.06
2023-04-27T18:38:41.850Z,96384.69
2023-04-27T18:41:08.777Z,96385.38
2023-04-27T18:43:38.970Z,96378.59
2023-04-27T18:46:06.252Z,96418.44
2023-04-27T18:48:33.208Z,96422.25
2023-04-27T18:51:00.187Z,96401.91
2023-04-27T18:53:28.273Z,96432.16
2023-04-27T18:55:55.837Z,96428.81
2023-04-27T18:58:22.825Z,96411.84
2023-04-27T19:00:49.924Z,96418.63
2023-04-27T19:03:17.047Z,96427.84
2023-04-27T19:05:44.332Z,96429.19
2023-04-27T19:08:11.516Z,96403.50
2023-04-27T19:10:41.448Z,96433.25
2023-04-27T19:13:08.760Z,96430.84
2023-04-27T19:15:35.802Z,96412.00
2023-04-27T19:18:10.691Z,96421.25
2023-04-27T19:20:39.469Z,96436.56
2023-04-27T19:23:08.103Z,96426.53
2023-04-27T19:25:35.286Z,96446.28
2023-04-27T19:28:02.242Z,96447.22
2023-04-27T19:30:29.328Z,96420.25
2023-04-27T19:32:56.363Z,96430.63
2023-04-27T19:35:24.109Z,96412.47
2023-04-27T19:37:51.339Z,96423.47
2023-04-27T19:40:18.722Z,96422.47
2023-04-27T19:42:46.096Z,96421.56
2023-04-27T19:45:13.251Z,96419.53
2023-04-27T19:47:40.286Z,96432.09
2023-04-27T19:50:07.627Z,96415.53
2023-04-27T19:52:34.608Z,96407.50
2023-04-27T19:55:01.593Z,96425.47
2023-04-27T19:57:28.525Z,96407.63
2023-04-27T19:59:55.403Z,96376.00
2023-04-27T20:02:22.351Z,96389.78
2023-04-27T20:04:49.531Z,96396.00
2023-04-27T20:07:17.010Z,96393.88
2023-04-27T20:09:43.983Z,96401.16
2023-04-27T20:12:20.995Z,96381.78
2023-04-27T20:14:56.453Z,96392.75
2023-04-27T20:17:26.276Z,96394.94
2023-04-27T20:19:57.398Z,96394.16
2023-04-27T20:22:24.292Z,96397.44
2023-04-27T20:24:51.297Z,96413.25
2023-04-27T20:27:18.222Z,96395.13
2023-04-27T20:29:46.802Z,96398.53
2023-04-27T20:32:13.762Z,96382.22
2023-04-27T20:34:40.866Z,96380.34
2023-04-27T20:37:07.778Z,96384.22
2023-04-27T20:39:35.272Z,96392.31
2023-04-27T20:42:02.282Z,96372.47
2023-04-27T20:44:29.127Z,96392.28
2023-04-27T20:46:56.300Z,96378.00
2023-04-27T20:49:32.127Z,96365.75
2023-04-27T20:52:02.426Z,96401.22
2023-04-27T20:54:32.991Z,96378.09
2023-04-27T20:57:03.921Z,96384.81
2023-04-27T20:59:30.756Z,96359.22
2023-04-27T21:01:57.784Z,96381.34
2023-04-27T21:04:24.696Z,96381.00
2023-04-27T21:06:51.712Z,96357.28
2023-04-27T21:09:18.643Z,96342.69
2023-04-27T21:11:45.633Z,96374.19
2023-04-27T21:14:12.783Z,96357.59
2023-04-27T21:16:39.791Z,96371.31
2023-04-27T21:19:08.959Z,96353.22
2023-04-27T21:21:35.824Z,96374.13
2023-04-27T21:24:08.193Z,96367.75
2023-04-27T21:26:35.456Z,96372.25
2023-04-27T21:29:05.631Z,96360.16
2023-04-27T21:31:33.554Z,96383.00
2023-04-27T21:34:01.009Z,96380.81
2023-04-27T21:36:28.246Z,96387.66
2023-04-27T21:38:55.178Z,96306.41
2023-04-27T21:41:22.102Z,96367.53
2023-04-27T21:43:48.993Z,96369.84
2023-04-27T21:46:16.034Z,96364.41
2023-04-27T21:48:42.986Z,96387.34
2023-04-27T21:51:10.136Z,96339.19
2023-04-27T21:53:37.176Z,96373.63
2023-04-27T21:56:04.455Z,96368.00
2023-04-27T21:58:33.671Z,96374.13
2023-04-27T22:01:00.567Z,96371.56
2023-04-27T22:03:28.722Z,96303.94
2023-04-27T22:05:57.806Z,96337.50
2023-04-27T22:08:24.781Z,96374.19
2023-04-27T22:10:51.749Z,96371.72
2023-04-27T22:13:19.655Z,96377.97
2023-04-27T22:15:47.731Z,96384.72
2023-04-27T22:18:15.807Z,96358.81
2023-04-27T22:20:43.267Z,96388.34
2023-04-27T22:23:11.070Z,96349.59
2023-04-27T22:25:38.003Z,96340.88
2023-04-27T22:28:05.069Z,96364.47
2023-04-27T22:30:32.013Z,96353.41
2023-04-27T22:32:59.141Z,96362.28
2023-04-27T22:35:27.925Z,96347.44
2023-04-27T22:37:59.800Z,96347.72
2023-04-27T22:40:26.844Z,96347.56
2023-04-27T22:42:55.230Z,96358.25
2023-04-27T22:45:23.341Z,96372.09
2023-04-27T22:47:51.153Z,96373.81
2023-04-27T22:50:18.420Z,96355.41
2023-04-27T22:52:45.279Z,96340.88
2023-04-27T22:55:12.985Z,96352.94
2023-04-27T22:57:41.540Z,96355.75
2023-04-27T23:00:11.757Z,96312.41
2023-04-27T23:02:40.714Z,96325.03
2023-04-27T23:05:08.712Z,96345.44
2023-04-27T23:07:36.360Z,96333.53
2023-04-27T23:10:03.803Z,96330.44
2023-04-27T23:12:31.585Z,96354.56
2023-04-27T23:14:59.019Z,96360.69
2023-04-27T23:17:32.530Z,96355.50
2023-04-27T23:20:01.174Z,96305.06
2023-04-27T23:22:28.852Z,96341.88
2023-04-27T23:24:56.447Z,96352.72
2023-04-27T23:27:25.096Z,96308.47
2023-04-27T23:29:52.840Z,96351.31
2023-04-27T23:32:20.083Z,96290.75
2023-04-27T23:34:47.194Z,96296.41
2023-04-27T23:37:14.107Z,96322.34
2023-04-27T23:39:41.175Z,96324.06
2023-04-27T23:42:08.102Z,96313.38
2023-04-27T23:44:34.972Z,96333.69
2023-04-27T23:47:01.948Z,96340.06
2023-04-27T23:49:28.823Z,96322.06
2023-04-27T23:51:55.923Z,96318.41
2023-04-27T23:54:23.470Z,96299.44
2023-04-27T23:56:51.563Z,96331.75
2023-04-27T23:59:18.880Z,96324.69
